createdAt,value
2023-04-15T00:01:28.493Z,52.05
2023-04-15T00:03:34.498Z,52.47
2023-04-15T00:05:38.417Z,52.31
2023-04-15T00:07:43.166Z,52.73
2023-04-15T00:09:46.549Z,52.73
2023-04-15T00:11:51.570Z,52.98
2023-04-15T00:13:54.879Z,52.97
2023-04-15T00:15:58.212Z,52.94
2023-04-15T00:18:02.376Z,53.21
2023-04-15T00:20:06.505Z,53.56
2023-04-15T00:22:09.824Z,53.26
2023-04-15T00:24:14.470Z,53.26
2023-04-15T00:26:18.912Z,53.84
2023-04-15T00:28:24.155Z,53.75
2023-04-15T00:30:27.578Z,53.72
2023-04-15T00:32:31.130Z,53.31
2023-04-15T00:34:34.468Z,53.31
2023-04-15T00:36:38.217Z,53.29
2023-04-15T00:38:41.638Z,53.47
2023-04-15T00:40:46.709Z,53.58
2023-04-15T00:42:50.129Z,53.35
2023-04-15T00:44:53.471Z,53.64
2023-04-15T00:46:59.538Z,53.86
2023-04-15T00:49:05.471Z,53.63
2023-04-15T00:51:10.677Z,53.81
2023-04-15T00:53:14.003Z,54.04
2023-04-15T00:55:17.637Z,53.84
2023-04-15T00:57:23.918Z,54.20
2023-04-15T00:59:28.006Z,54.19
2023-04-15T01:01:32.780Z,54.44
2023-04-15T01:03:36.672Z,54.44
2023-04-15T01:05:40.458Z,55.04
2023-04-15T01:07:43.902Z,54.68
2023-04-15T01:09:48.044Z,55.10
2023-04-15T01:11:51.771Z,55.32
2023-04-15T01:13:57.416Z,55.48
2023-04-15T01:16:02.910Z,55.67
2023-04-15T01:18:07.475Z,55.66
2023-04-15T01:20:12.175Z,56.01
2023-04-15T01:22:16.067Z,55.69
2023-04-15T01:24:20.217Z,56.35
2023-04-15T01:26:25.415Z,56.39
2023-04-15T01:28:28.788Z,56.20
2023-04-15T01:30:35.266Z,56.34
2023-04-15T01:32:38.957Z,56.56
2023-04-15T01:34:42.418Z,56.25
2023-04-15T01:36:45.859Z,56.44
2023-04-15T01:38:51.355Z,56.47
2023-04-15T01:40:54.776Z,56.81
2023-04-15T01:42:59.480Z,56.80
2023-04-15T01:45:03.039Z,56.80
2023-04-15T01:47:06.860Z,56.57
2023-04-15T01:49:10.335Z,57.12
2023-04-15T01:51:13.932Z,57.26
2023-04-15T01:53:17.356Z,57.45
2023-04-15T01:55:21.152Z,57.53
2023-04-15T01:57:24.587Z,57.02
2023-04-15T01:59:29.961Z,56.95
2023-04-15T02:01:33.948Z,57.25
2023-04-15T02:03:38.916Z,56.91
2023-04-15T02:05:42.608Z,57.31
2023-04-15T02:07:47.412Z,57.42
2023-04-15T02:09:50.722Z,57.80
2023-04-15T02:11:54.718Z,58.01
2023-04-15T02:13:58.078Z,57.53
2023-04-15T02:16:04.647Z,57.78
2023-04-15T02:18:08.147Z,57.98
2023-04-15T02:20:13.299Z,57.76
2023-04-15T02:22:18.759Z,57.92
2023-04-15T02:24:23.057Z,58.08
2023-04-15T02:26:26.471Z,57.84
2023-04-15T02:28:31.123Z,57.73
2023-04-15T02:30:35.134Z,58.07
2023-04-15T02:32:44.841Z,58.26
2023-04-15T02:34:48.289Z,58.36
2023-04-15T02:36:55.985Z,58.44
2023-04-15T02:38:59.922Z,58.34
2023-04-15T02:41:04.810Z,58.22
2023-04-15T02:43:08.292Z,58.20
2023-04-15T02:45:13.192Z,58.32
2023-04-15T02:47:18.068Z,58.64
2023-04-15T02:49:23.083Z,59.11
2023-04-15T02:51:27.082Z,58.68
2023-04-15T02:53:30.416Z,58.96
2023-04-15T02:55:34.238Z,59.22
2023-04-15T02:57:39.208Z,59.15
2023-04-15T02:59:44.991Z,59.08
2023-04-15T03:01:48.475Z,59.27
2023-04-15T03:03:52.032Z,59.75
2023-04-15T03:05:56.932Z,59.78
2023-04-15T03:08:01.812Z,60.15
2023-04-15T03:10:05.626Z,59.84
2023-04-15T03:12:09.059Z,59.81
2023-04-15T03:14:12.438Z,60.34
2023-04-15T03:16:19.664Z,60.46
2023-04-15T03:18:23.768Z,60.29
2023-04-15T03:20:27.553Z,60.63
2023-04-15T03:22:32.487Z,60.21
2023-04-15T03:24:36.404Z,60.18
2023-04-15T03:26:39.913Z,60.13
2023-04-15T03:28:49.361Z,60.16
2023-04-15T03:30:54.525Z,60.53
2023-04-15T03:32:57.848Z,59.79
2023-04-15T03:35:01.256Z,60.72
2023-04-15T03:37:04.741Z,60.49
2023-04-15T03:39:09.471Z,61.08
2023-04-15T03:41:13.120Z,60.80
2023-04-15T03:43:16.633Z,61.02
2023-04-15T03:45:20.077Z,60.85
2023-04-15T03:47:23.772Z,61.02
2023-04-15T03:49:27.108Z,60.93
2023-04-15T03:51:31.358Z,61.10
2023-04-15T03:53:34.683Z,61.02
2023-04-15T03:55:39.320Z,60.92
2023-04-15T03:57:42.896Z,60.88
2023-04-15T03:59:46.146Z,61.51
2023-04-15T04:01:49.543Z,61.37
2023-04-15T04:03:53.280Z,60.91
2023-04-15T04:05:57.101Z,61.25
2023-04-15T04:08:00.627Z,61.41
2023-04-15T04:10:04.729Z,61.59
2023-04-15T04:12:09.530Z,61.62
2023-04-15T04:14:16.387Z,61.78
2023-04-15T04:16:20.140Z,61.60
2023-04-15T04:18:28.108Z,61.77
2023-04-15T04:20:35.223Z,62.04
2023-04-15T04:22:40.701Z,62.29
2023-04-15T04:24:49.253Z,62.13
2023-04-15T04:26:53.058Z,62.17
2023-04-15T04:28:57.690Z,61.95
2023-04-15T04:31:01.222Z,61.95
2023-04-15T04:33:04.856Z,62.35
2023-04-15T04:35:08.973Z,62.28
2023-04-15T04:37:12.252Z,62.31
2023-04-15T04:39:15.674Z,62.32
2023-04-15T04:41:19.108Z,62.36
2023-04-15T04:43:23.439Z,62.34
2023-04-15T04:45:28.159Z,62.30
2023-04-15T04:47:31.806Z,62.37
2023-04-15T04:49:35.593Z,62.49
2023-04-15T04:51:39.327Z,62.00
2023-04-15T04:53:43.139Z,62.34
2023-04-15T04:55:46.696Z,62.43
2023-04-15T04:57:49.965Z,62.87
2023-04-15T04:59:53.273Z,62.67
2023-04-15T05:01:57.942Z,63.07
2023-04-15T05:04:01.657Z,62.98
2023-04-15T05:06:07.291Z,63.11
2023-04-15T05:08:11.167Z,63.19
2023-04-15T05:10:15.316Z,63.74
2023-04-15T05:12:18.688Z,64.01
2023-04-15T05:14:23.417Z,64.08
2023-04-15T05:16:26.920Z,64.21
2023-04-15T05:18:32.045Z,64.02
2023-04-15T05:20:35.735Z,64.06
2023-04-15T05:22:39.036Z,64.01
2023-04-15T05:24:43.118Z,63.82
2023-04-15T05:26:46.538Z,64.22
2023-04-15T05:28:50.205Z,64.21
2023-04-15T05:30:53.536Z,64.13
2023-04-15T05:32:57.029Z,64.21
2023-04-15T05:35:01.784Z,63.99
2023-04-15T05:37:05.072Z,64.26
2023-04-15T05:39:09.030Z,63.96
2023-04-15T05:41:12.392Z,64.15
2023-04-15T05:43:15.701Z,63.99
2023-04-15T05:45:19.169Z,64.16
2023-04-15T05:47:22.882Z,64.36
2023-04-15T05:49:26.505Z,64.15
2023-04-15T05:51:31.340Z,64.46
2023-04-15T05:53:34.645Z,64.73
2023-04-15T05:55:38.076Z,64.53
2023-04-15T05:57:41.458Z,65.14
2023-04-15T05:59:45.015Z,65.59
2023-04-15T06:01:48.578Z,66.05
2023-04-15T06:03:52.247Z,66.29
2023-04-15T06:05:55.663Z,66.91
2023-04-15T06:08:00.346Z,67.55
2023-04-15T06:10:03.898Z,67.09
2023-04-15T06:12:12.033Z,67.74
2023-04-15T06:14:15.382Z,67.86
2023-04-15T06:16:18.781Z,68.04
2023-04-15T06:18:22.699Z,68.29
2023-04-15T06:20:26.141Z,68.01
2023-04-15T06:22:29.477Z,67.68
2023-04-15T06:24:34.181Z,67.60
2023-04-15T06:26:37.558Z,67.51
2023-04-15T06:28:40.913Z,67.40
2023-04-15T06:30:44.293Z,67.11
2023-04-15T06:32:48.522Z,66.90
2023-04-15T06:34:51.864Z,66.35
2023-04-15T06:36:55.508Z,66.16
2023-04-15T06:38:59.154Z,65.83
2023-04-15T06:41:04.629Z,65.74
2023-04-15T06:43:08.056Z,65.38
2023-04-15T06:45:12.490Z,65.66
2023-04-15T06:47:16.109Z,64.84
2023-04-15T06:49:19.377Z,64.66
2023-04-15T06:51:25.588Z,65.05
2023-04-15T06:53:30.036Z,64.82
2023-04-15T06:55:33.967Z,64.82
2023-04-15T06:57:38.757Z,65.11
2023-04-15T06:59:43.030Z,64.52
2023-04-15T07:01:46.469Z,64.51
2023-04-15T07:03:49.874Z,65.22
2023-04-15T07:05:53.414Z,65.22
2023-04-15T07:07:57.179Z,65.15
2023-04-15T07:10:02.052Z,65.41
2023-04-15T07:12:05.555Z,65.22
2023-04-15T07:14:10.385Z,64.79
2023-04-15T07:16:13.912Z,64.72
2023-04-15T07:18:17.193Z,64.35
2023-04-15T07:20:20.510Z,64.42
2023-04-15T07:22:23.881Z,64.37
2023-04-15T07:24:27.577Z,64.00
2023-04-15T07:26:31.012Z,63.46
2023-04-15T07:28:34.349Z,62.62
2023-04-15T07:30:39.526Z,61.46
2023-04-15T07:32:43.599Z,61.16
2023-04-15T07:34:47.029Z,60.49
2023-04-15T07:36:51.820Z,60.46
2023-04-15T07:38:55.344Z,59.94
2023-04-15T07:40:58.995Z,59.89
2023-04-15T07:43:02.566Z,59.48
2023-04-15T07:45:08.522Z,59.33
2023-04-15T07:47:13.994Z,59.31
2023-04-15T07:49:19.312Z,59.10
2023-04-15T07:51:22.902Z,58.59
2023-04-15T07:53:26.545Z,58.13
2023-04-15T07:55:30.676Z,57.75
2023-04-15T07:57:34.211Z,57.49
2023-04-15T07:59:37.766Z,56.44
2023-04-15T08:01:41.290Z,56.12
2023-04-15T08:03:46.323Z,55.71
2023-04-15T08:05:50.031Z,55.81
2023-04-15T08:07:53.436Z,55.22
2023-04-15T08:09:57.005Z,54.96
2023-04-15T08:12:01.053Z,54.87
2023-04-15T08:14:04.396Z,54.89
2023-04-15T08:16:22.601Z,55.03
2023-04-15T08:18:26.427Z,54.99
2023-04-15T08:20:31.165Z,54.93
2023-04-15T08:22:34.571Z,54.90
2023-04-15T08:24:39.169Z,54.52
2023-04-15T08:26:43.308Z,54.00
2023-04-15T08:28:47.848Z,53.52
2023-04-15T08:30:51.584Z,53.62
2023-04-15T08:32:55.266Z,53.34
2023-04-15T08:34:58.711Z,53.33
2023-04-15T08:37:03.543Z,53.34
2023-04-15T08:39:07.017Z,53.45
2023-04-15T08:41:20.109Z,52.50
2023-04-15T08:43:26.947Z,52.88
2023-04-15T08:45:30.710Z,53.09
2023-04-15T08:47:35.206Z,52.98
2023-04-15T08:49:41.969Z,52.93
2023-04-15T08:51:46.281Z,52.80
2023-04-15T08:53:51.490Z,53.02
2023-04-15T08:55:58.756Z,51.85
2023-04-15T08:58:03.378Z,52.02
2023-04-15T09:00:09.381Z,52.14
2023-04-15T09:02:13.515Z,52.45
2023-04-15T09:04:17.965Z,52.54
2023-04-15T09:06:22.256Z,52.93
2023-04-15T09:08:25.722Z,52.71
2023-04-15T09:10:30.911Z,53.22
2023-04-15T09:12:36.060Z,53.30
2023-04-15T09:14:41.385Z,52.74
2023-04-15T09:17:02.007Z,52.58
2023-04-15T09:19:22.626Z,52.60
2023-04-15T09:21:26.151Z,53.04
2023-04-15T09:23:29.521Z,53.07
2023-04-15T09:25:35.043Z,53.00
2023-04-15T09:27:38.581Z,52.69
2023-04-15T09:29:42.771Z,52.89
2023-04-15T09:31:46.411Z,52.91
2023-04-15T09:33:57.588Z,53.00
2023-04-15T09:36:03.512Z,53.10
2023-04-15T09:38:08.489Z,53.43
2023-04-15T09:40:13.076Z,53.03
2023-04-15T09:42:24.062Z,53.52
2023-04-15T09:44:28.228Z,53.74
2023-04-15T09:46:44.863Z,53.68
2023-04-15T09:48:48.390Z,54.05
2023-04-15T09:50:53.626Z,53.43
2023-04-15T09:52:57.411Z,53.16
2023-04-15T09:55:01.516Z,53.08
2023-04-15T09:57:09.842Z,53.09
2023-04-15T09:59:14.558Z,53.12
2023-04-15T10:01:18.010Z,53.16
2023-04-15T10:03:23.793Z,52.91
2023-04-15T10:05:29.724Z,53.51
2023-04-15T10:07:33.903Z,53.91
2023-04-15T10:09:39.354Z,54.14
2023-04-15T10:11:44.299Z,53.89
2023-04-15T10:13:50.522Z,53.79
2023-04-15T10:15:59.559Z,53.70
2023-04-15T10:18:04.081Z,52.89
2023-04-15T10:20:09.684Z,52.81
2023-04-15T10:22:13.137Z,52.92
2023-04-15T10:24:17.565Z,52.80
2023-04-15T10:26:21.744Z,52.18
2023-04-15T10:28:26.456Z,51.61
2023-04-15T10:30:31.385Z,51.77
2023-04-15T10:32:36.631Z,51.90
2023-04-15T10:34:40.936Z,52.03
2023-04-15T10:36:44.365Z,52.14
2023-04-15T10:38:47.662Z,52.02
2023-04-15T10:40:51.661Z,52.11
2023-04-15T10:42:56.471Z,51.87
2023-04-15T10:44:59.841Z,52.32
2023-04-15T10:47:10.955Z,52.48
2023-04-15T10:49:17.565Z,51.65
2023-04-15T10:51:32.621Z,52.03
2023-04-15T10:53:37.872Z,52.06
2023-04-15T10:55:41.203Z,52.00
2023-04-15T10:57:45.334Z,52.01
2023-04-15T11:00:04.718Z,52.10
2023-04-15T11:02:09.267Z,52.30
2023-04-15T11:04:12.902Z,52.64
2023-04-15T11:06:17.650Z,53.00
2023-04-15T11:08:21.987Z,53.15
2023-04-15T11:10:55.844Z,53.05
2023-04-15T11:13:01.157Z,53.17
2023-04-15T11:15:28.205Z,53.57
2023-04-15T11:17:31.753Z,53.73
2023-04-15T11:19:39.117Z,53.86
2023-04-15T11:21:43.771Z,54.06
2023-04-15T11:23:47.354Z,54.14
2023-04-15T11:25:51.291Z,54.22
2023-04-15T11:27:55.379Z,54.80
2023-04-15T11:29:58.669Z,54.77
2023-04-15T11:32:10.419Z,54.72
2023-04-15T11:34:13.985Z,54.90
2023-04-15T11:36:17.824Z,54.90
2023-04-15T11:38:22.805Z,55.51
2023-04-15T11:40:28.952Z,55.90
2023-04-15T11:42:46.462Z,56.06
2023-04-15T11:45:09.317Z,56.48
2023-04-15T11:47:24.077Z,56.73
2023-04-15T11:49:28.675Z,56.99
2023-04-15T11:51:34.318Z,57.05
2023-04-15T11:53:41.457Z,57.29
2023-04-15T11:55:46.984Z,57.58
2023-04-15T11:57:51.113Z,57.31
2023-04-15T11:59:56.299Z,56.78
2023-04-15T12:01:59.776Z,56.98
2023-04-15T12:04:04.618Z,57.22
2023-04-15T12:06:12.330Z,56.89
2023-04-15T12:08:15.781Z,57.63
2023-04-15T12:10:20.514Z,58.08
2023-04-15T12:12:27.712Z,58.41
2023-04-15T12:14:32.539Z,58.53
2023-04-15T12:16:49.175Z,59.08
2023-04-15T12:18:56.034Z,59.44
2023-04-15T12:21:09.980Z,59.41
2023-04-15T12:23:13.446Z,59.74
2023-04-15T12:25:16.928Z,59.92
2023-04-15T12:27:21.900Z,60.00
2023-04-15T12:29:27.366Z,60.10
2023-04-15T12:31:31.066Z,60.42
2023-04-15T12:33:34.707Z,60.44
2023-04-15T12:35:38.228Z,60.55
2023-04-15T12:37:41.511Z,60.60
2023-04-15T12:39:46.878Z,61.20
2023-04-15T12:41:50.254Z,61.43
2023-04-15T12:43:54.954Z,61.52
2023-04-15T12:45:58.313Z,61.72
2023-04-15T12:48:02.068Z,61.75
2023-04-15T12:50:06.455Z,61.80
2023-04-15T12:52:10.021Z,61.63
2023-04-15T12:54:13.384Z,61.41
2023-04-15T12:56:16.969Z,61.35
2023-04-15T12:58:20.543Z,61.44
2023-04-15T13:00:25.375Z,61.10
2023-04-15T13:02:29.360Z,61.17
2023-04-15T13:04:32.820Z,61.75
2023-04-15T13:06:36.359Z,61.79
2023-04-15T13:08:42.722Z,61.61
2023-04-15T13:10:49.099Z,61.69
2023-04-15T13:12:53.698Z,61.59
2023-04-15T13:14:57.017Z,61.57
2023-04-15T13:17:02.837Z,61.75
2023-04-15T13:19:06.443Z,61.92
2023-04-15T13:21:10.934Z,61.96
2023-04-15T13:23:14.269Z,62.29
2023-04-15T13:25:17.621Z,62.37
2023-04-15T13:27:21.367Z,62.28
2023-04-15T13:29:24.689Z,62.45
2023-04-15T13:31:28.287Z,62.36
2023-04-15T13:33:33.186Z,62.25
2023-04-15T13:35:36.620Z,62.39
2023-04-15T13:37:40.388Z,62.36
2023-04-15T13:39:43.772Z,62.71
2023-04-15T13:41:48.435Z,62.63
2023-04-15T13:43:51.811Z,62.48
2023-04-15T13:45:55.289Z,62.68
2023-04-15T13:47:58.806Z,62.58
2023-04-15T13:50:03.611Z,62.63
2023-04-15T13:52:07.247Z,62.69
2023-04-15T13:54:10.596Z,62.38
2023-04-15T13:56:14.128Z,62.69
2023-04-15T13:58:17.508Z,63.18
2023-04-15T14:00:20.847Z,63.48
2023-04-15T14:02:24.368Z,63.90
2023-04-15T14:04:27.971Z,64.45
2023-04-15T14:06:32.851Z,64.88
2023-04-15T14:08:36.368Z,65.44
2023-04-15T14:10:39.784Z,65.80
2023-04-15T14:12:43.129Z,66.31
2023-04-15T14:14:46.968Z,66.84
2023-04-15T14:16:50.409Z,67.02
2023-04-15T14:18:54.599Z,69.07
2023-04-15T14:20:57.946Z,68.82
2023-04-15T14:23:02.733Z,68.30
2023-04-15T14:25:10.542Z,68.51
2023-04-15T14:27:16.767Z,68.63
2023-04-15T14:29:20.200Z,68.62
2023-04-15T14:31:23.571Z,68.85
2023-04-15T14:33:26.977Z,68.70
2023-04-15T14:35:30.531Z,68.78
2023-04-15T14:37:33.893Z,68.45
2023-04-15T14:39:38.580Z,68.68
2023-04-15T14:41:41.936Z,68.84
2023-04-15T14:43:45.301Z,68.59
2023-04-15T14:45:48.905Z,68.65
2023-04-15T14:47:53.105Z,68.22
2023-04-15T14:49:56.482Z,68.88
2023-04-15T14:52:00.058Z,68.69
2023-04-15T14:54:03.785Z,68.87
2023-04-15T14:56:09.071Z,68.66
2023-04-15T14:58:12.457Z,68.78
2023-04-15T15:00:16.501Z,68.53
2023-04-15T15:02:37.372Z,68.68
2023-04-15T15:04:42.220Z,68.33
2023-04-15T15:06:46.722Z,68.14
2023-04-15T15:08:52.002Z,68.64
2023-04-15T15:10:55.526Z,68.85
2023-04-15T15:13:00.250Z,70.04
2023-04-15T15:15:12.178Z,68.83
2023-04-15T15:17:16.088Z,68.66
2023-04-15T15:19:19.408Z,68.97
2023-04-15T15:21:22.847Z,69.58
2023-04-15T15:23:26.155Z,69.82
2023-04-15T15:25:29.927Z,70.32
2023-04-15T15:27:33.305Z,70.75
2023-04-15T15:29:38.694Z,71.58
2023-04-15T15:31:42.130Z,71.93
2023-04-15T15:33:45.728Z,71.77
2023-04-15T15:35:49.171Z,72.27
2023-04-15T15:37:53.331Z,72.82
2023-04-15T15:39:58.911Z,72.82
2023-04-15T15:42:02.438Z,72.80
2023-04-15T15:44:05.913Z,73.01
2023-04-15T15:46:10.976Z,73.30
2023-04-15T15:48:14.581Z,73.77
2023-04-15T15:50:18.004Z,73.47
2023-04-15T15:52:21.630Z,73.98
2023-04-15T15:54:25.809Z,74.08
2023-04-15T15:56:29.103Z,74.29
2023-04-15T15:58:32.787Z,74.30
2023-04-15T16:00:36.664Z,74.87
2023-04-15T16:04:47.758Z,75.41
2023-04-15T16:06:51.127Z,75.29
2023-04-15T16:08:54.562Z,75.77
2023-04-15T16:10:58.432Z,76.07
2023-04-15T16:13:02.240Z,76.13
2023-04-15T16:15:06.558Z,76.26
2023-04-15T16:17:10.237Z,77.03
2023-04-15T16:19:15.300Z,77.13
2023-04-15T16:21:20.200Z,77.23
2023-04-15T16:23:24.074Z,77.24
2023-04-15T16:25:27.523Z,77.05
2023-04-15T16:27:30.870Z,77.46
2023-04-15T16:29:34.386Z,77.48
2023-04-15T16:31:39.826Z,77.14
2023-04-15T16:33:43.265Z,77.43
2023-04-15T16:35:48.021Z,77.56
2023-04-15T16:37:51.484Z,77.69
2023-04-15T16:39:54.749Z,77.37
2023-04-15T16:41:58.199Z,77.30
2023-04-15T16:44:03.176Z,77.64
2023-04-15T16:46:06.677Z,77.51
2023-04-15T16:48:10.120Z,77.45
2023-04-15T16:50:13.611Z,77.17
2023-04-15T16:52:18.516Z,77.29
2023-04-15T16:54:21.854Z,77.61
2023-04-15T16:56:25.333Z,77.61
2023-04-15T16:58:28.817Z,77.62
2023-04-15T17:00:32.925Z,77.74
2023-04-15T17:02:36.810Z,77.97
2023-04-15T17:04:41.591Z,77.82
2023-04-15T17:06:44.973Z,78.38
2023-04-15T17:08:49.700Z,77.99
2023-04-15T17:10:53.049Z,77.43
2023-04-15T17:12:57.309Z,77.39
2023-04-15T17:15:00.702Z,77.31
2023-04-15T17:17:04.124Z,77.35
2023-04-15T17:19:07.869Z,77.18
2023-04-15T17:21:11.380Z,77.19
2023-04-15T17:23:14.897Z,76.71
2023-04-15T17:25:19.763Z,76.76
2023-04-15T17:27:24.704Z,76.34
2023-04-15T17:29:28.054Z,76.63
2023-04-15T17:31:31.838Z,76.79
2023-04-15T17:34:00.328Z,76.70
2023-04-15T17:35:58.710Z,76.36
2023-04-15T17:38:02.249Z,76.80
2023-04-15T17:40:08.611Z,76.95
2023-04-15T17:42:14.536Z,77.07
2023-04-15T17:44:19.205Z,77.33
2023-04-15T17:46:22.585Z,76.68
2023-04-15T17:48:26.739Z,77.30
2023-04-15T17:50:30.092Z,77.16
2023-04-15T17:52:33.455Z,77.33
2023-04-15T17:54:36.887Z,76.93
2023-04-15T17:56:40.412Z,77.07
2023-04-15T17:58:45.197Z,77.43
2023-04-15T18:00:48.790Z,77.04
2023-04-15T18:02:52.904Z,77.49
2023-04-15T18:04:56.532Z,77.61
2023-04-15T18:07:00.111Z,77.65
2023-04-15T18:09:03.978Z,77.58
2023-04-15T18:11:08.384Z,77.27
2023-04-15T18:13:11.691Z,77.17
2023-04-15T18:15:16.412Z,77.79
2023-04-15T18:17:20.265Z,77.94
2023-04-15T18:19:25.695Z,78.13
2023-04-15T18:21:29.069Z,78.85
2023-04-15T18:23:32.446Z,78.81
2023-04-15T18:25:38.056Z,79.02
2023-04-15T18:27:41.547Z,79.01
2023-04-15T18:29:45.102Z,79.45
2023-04-15T18:31:49.832Z,79.69
2023-04-15T18:33:53.234Z,79.94
2023-04-15T18:35:57.375Z,80.77
2023-04-15T18:38:00.755Z,80.76
2023-04-15T18:40:04.055Z,80.52
2023-04-15T18:42:07.413Z,81.43
2023-04-15T18:44:10.851Z,81.28
2023-04-15T18:46:14.582Z,81.48
2023-04-15T18:48:19.564Z,82.37
2023-04-15T18:50:23.149Z,82.82
2023-04-15T18:52:26.562Z,82.95
2023-04-15T18:54:30.001Z,83.24
2023-04-15T18:56:33.416Z,83.00
2023-04-15T18:59:26.964Z,83.21
2023-04-15T19:01:00.764Z,83.43
2023-04-15T19:03:04.458Z,84.18
2023-04-15T19:05:09.908Z,84.10
2023-04-15T19:07:13.246Z,84.01
2023-04-15T19:09:16.881Z,84.85
2023-04-15T19:11:20.213Z,85.33
2023-04-15T19:13:24.244Z,85.62
2023-04-15T19:15:27.606Z,86.22
2023-04-15T19:17:31.350Z,86.56
2023-04-15T19:19:34.724Z,87.31
2023-04-15T19:21:39.512Z,87.65
2023-04-15T19:23:43.734Z,87.87
2023-04-15T19:25:47.098Z,87.89
2023-04-15T19:27:50.568Z,88.19
2023-04-15T19:29:54.010Z,88.54
2023-04-15T19:31:57.383Z,88.35
2023-04-15T19:34:00.736Z,88.70
2023-04-15T19:36:06.414Z,88.59
2023-04-15T19:38:11.171Z,88.51
2023-04-15T19:40:14.712Z,88.99
2023-04-15T19:42:18.222Z,89.13
2023-04-15T19:44:21.595Z,88.74
2023-04-15T19:46:25.085Z,88.98
2023-04-15T19:48:28.687Z,88.92
2023-04-15T19:50:32.986Z,89.08
2023-04-15T19:52:36.478Z,89.36
2023-04-15T19:54:41.324Z,89.29
2023-04-15T19:56:44.682Z,88.93
2023-04-15T19:58:52.673Z,89.76
2023-04-15T20:00:56.172Z,89.60
2023-04-15T20:02:59.889Z,90.08
2023-04-15T20:05:03.384Z,89.67
2023-04-15T20:07:06.762Z,90.34
2023-04-15T20:09:11.418Z,90.16
2023-04-15T20:11:16.330Z,90.27
2023-04-15T20:13:19.644Z,90.63
2023-04-15T20:15:23.995Z,90.22
2023-04-15T20:17:27.584Z,90.39
2023-04-15T20:19:30.939Z,90.29
2023-04-15T20:21:34.342Z,91.64
2023-04-15T20:23:38.269Z,91.71
2023-04-15T20:25:42.775Z,91.20
2023-04-15T20:27:47.494Z,91.41
2023-04-15T20:29:54.070Z,91.55
2023-04-15T20:31:57.397Z,92.19
2023-04-15T20:34:00.731Z,92.26
2023-04-15T20:36:04.271Z,92.09
2023-04-15T20:38:07.687Z,91.98
2023-04-15T20:40:12.300Z,91.98
2023-04-15T20:42:15.902Z,92.62
2023-04-15T20:44:20.593Z,92.53
2023-04-15T20:46:25.253Z,93.02
2023-04-15T20:48:31.122Z,93.15
2023-04-15T20:50:34.499Z,93.09
2023-04-15T20:52:39.438Z,93.05
2023-04-15T20:54:42.885Z,93.30
2023-04-15T20:56:46.280Z,93.68
2023-04-15T20:58:49.752Z,93.16
2023-04-15T21:00:55.332Z,93.61
2023-04-15T21:02:58.844Z,93.50
2023-04-15T21:05:02.341Z,93.38
2023-04-15T21:07:05.974Z,93.65
2023-04-15T21:09:09.424Z,93.23
2023-04-15T21:11:14.850Z,93.50
2023-04-15T21:13:24.745Z,93.50
2023-04-15T21:15:28.315Z,93.05
2023-04-15T21:17:33.877Z,93.83
2023-04-15T21:19:37.996Z,93.31
2023-04-15T21:21:41.409Z,93.82
2023-04-15T21:23:44.721Z,94.13
2023-04-15T21:25:48.090Z,93.35
2023-04-15T21:27:51.450Z,93.61
2023-04-15T21:29:54.751Z,93.11
2023-04-15T21:31:58.156Z,93.27
2023-04-15T21:34:02.869Z,93.25
2023-04-15T21:36:06.675Z,93.86
2023-04-15T21:38:10.037Z,93.19
2023-04-15T21:40:14.735Z,93.13
2023-04-15T21:42:18.172Z,93.24
2023-04-15T21:44:21.568Z,93.75
2023-04-15T21:46:33.254Z,93.81
2023-04-15T21:48:39.175Z,93.28
2023-04-15T21:50:44.071Z,93.42
2023-04-15T21:52:47.375Z,93.71
2023-04-15T21:54:50.695Z,93.94
2023-04-15T21:56:54.068Z,93.20
2023-04-15T21:58:58.548Z,93.44
2023-04-15T22:01:01.925Z,93.27
2023-04-15T22:03:05.406Z,93.69
2023-04-15T22:05:09.292Z,93.09
2023-04-15T22:07:13.969Z,93.46
2023-04-15T22:09:18.326Z,93.17
2023-04-15T22:11:26.705Z,93.23
2023-04-15T22:13:30.443Z,93.56
2023-04-15T22:15:33.816Z,93.42
2023-04-15T22:17:37.278Z,93.02
2023-04-15T22:19:41.054Z,93.02
2023-04-15T22:21:44.466Z,93.11
2023-04-15T22:23:50.392Z,92.68
2023-04-15T22:25:53.686Z,92.58
2023-04-15T22:27:57.084Z,92.57
2023-04-15T22:30:00.616Z,92.77
2023-04-15T22:32:04.100Z,92.83
2023-04-15T22:34:08.031Z,93.23
2023-04-15T22:36:11.521Z,92.34
2023-04-15T22:38:14.840Z,93.07
2023-04-15T22:40:19.862Z,93.23
2023-04-15T22:42:23.270Z,93.28
2023-04-15T22:44:26.715Z,93.11
2023-04-15T22:46:30.111Z,93.00
2023-04-15T22:48:33.551Z,92.70
2023-04-15T22:50:38.270Z,93.23
2023-04-15T22:52:41.608Z,92.93
2023-04-15T22:54:45.131Z,93.32
2023-04-15T22:56:49.924Z,92.99
2023-04-15T22:58:53.428Z,93.39
2023-04-15T23:00:57.500Z,92.79
2023-04-15T23:03:02.153Z,92.83
2023-04-15T23:05:12.000Z,93.12
2023-04-15T23:07:19.159Z,92.80
2023-04-15T23:09:22.529Z,93.70
2023-04-15T23:11:25.902Z,94.32
2023-04-15T23:13:30.629Z,93.71
2023-04-15T23:15:34.101Z,93.47
2023-04-15T23:17:37.509Z,93.44
2023-04-15T23:19:41.119Z,93.43
2023-04-15T23:21:44.477Z,93.21
2023-04-15T23:23:47.797Z,93.52
2023-04-15T23:25:51.257Z,93.06
2023-04-15T23:27:54.765Z,93.36
2023-04-15T23:29:59.536Z,92.94
2023-04-15T23:32:03.077Z,93.53
2023-04-15T23:34:06.528Z,92.75
2023-04-15T23:36:09.944Z,93.38
2023-04-15T23:38:13.226Z,92.60
2023-04-15T23:40:16.738Z,92.92
2023-04-15T23:42:20.066Z,92.68
2023-04-15T23:44:23.426Z,92.87
2023-04-15T23:46:28.169Z,92.75
2023-04-15T23:48:32.596Z,92.89
2023-04-15T23:50:36.038Z,92.42
2023-04-15T23:52:39.356Z,92.31
2023-04-15T23:54:42.773Z,92.46
2023-04-15T23:56:46.149Z,92.41
2023-04-15T23:58:49.618Z,91.97
